sensor_id;sensor_type;location;lat;lon;timestamp;P1;durP1;ratioP1;P2;durP2;ratioP2
4084;SDS011;2057;50.858;6.572;2024-03-08T00:00:07;36.00;;;21.70;;
4084;SDS011;2057;50.858;6.572;2024-03-08T00:02:37;39.22;;;21.77;;
4084;SDS011;2057;50.858;6.572;2024-03-08T00:05:06;34.50;;;19.00;;
4084;SDS011;2057;50.858;6.572;2024-03-08T00:07:33;31.20;;;19.90;;
4084;SDS011;2057;50.858;6.572;2024-03-08T00:10:02;30.40;;;19.60;;
4084;SDS011;2057;50.858;6.572;2024-03-08T00:12:36;25.05;;;17.90;;
4084;SDS011;2057;50.858;6.572;2024-03-08T00:15:02;32.03;;;19.50;;
4084;SDS011;2057;50.858;6.572;2024-03-08T00:17:27;37.00;;;20.03;;
4084;SDS011;2057;50.858;6.572;2024-03-08T00:19:52;33.23;;;19.63;;
4084;SDS011;2057;50.858;6.572;2024-03-08T00:22:18;41.63;;;19.57;;
4084;SDS011;2057;50.858;6.572;2024-03-08T00:24:43;34.87;;;20.50;;
4084;SDS011;2057;50.858;6.572;2024-03-08T00:27:09;39.93;;;20.67;;
4084;SDS011;2057;50.858;6.572;2024-03-08T00:29:35;31.10;;;19.52;;
4084;SDS011;2057;50.858;6.572;2024-03-08T00:32:02;33.20;;;20.60;;
4084;SDS011;2057;50.858;6.572;2024-03-08T00:34:28;33.35;;;20.45;;
4084;SDS011;2057;50.858;6.572;2024-03-08T00:36:53;39.37;;;21.93;;
4084;SDS011;2057;50.858;6.572;2024-03-08T00:39:18;36.77;;;22.23;;
4084;SDS011;2057;50.858;6.572;2024-03-08T00:41:49;34.33;;;21.15;;
4084;SDS011;2057;50.858;6.572;2024-03-08T00:44:17;39.70;;;21.58;;
4084;SDS011;2057;50.858;6.572;2024-03-08T00:46:42;34.20;;;21.30;;
4084;SDS011;2057;50.858;6.572;2024-03-08T00:49:08;37.17;;;21.27;;
4084;SDS011;2057;50.858;6.572;2024-03-08T00:51:34;37.40;;;23.00;;
4084;SDS011;2057;50.858;6.572;2024-03-08T00:53:59;32.40;;;20.07;;
4084;SDS011;2057;50.858;6.572;2024-03-08T00:56:27;32.35;;;21.77;;
4084;SDS011;2057;50.858;6.572;2024-03-08T00:58:52;35.73;;;21.57;;
4084;SDS011;2057;50.858;6.572;2024-03-08T01:01:18;30.60;;;19.73;;
4084;SDS011;2057;50.858;6.572;2024-03-08T01:03:44;35.80;;;21.60;;
4084;SDS011;2057;50.858;6.572;2024-03-08T01:06:09;34.17;;;18.77;;
4084;SDS011;2057;50.858;6.572;2024-03-08T01:08:36;32.35;;;18.67;;
4084;SDS011;2057;50.858;6.572;2024-03-08T01:11:03;44.33;;;23.10;;
4084;SDS011;2057;50.858;6.572;2024-03-08T01:13:29;40.60;;;23.08;;
4084;SDS011;2057;50.858;6.572;2024-03-08T01:15:55;31.83;;;20.33;;
4084;SDS011;2057;50.858;6.572;2024-03-08T01:18:23;34.28;;;20.75;;
4084;SDS011;2057;50.858;6.572;2024-03-08T01:20:50;34.38;;;20.80;;
4084;SDS011;2057;50.858;6.572;2024-03-08T01:23:15;40.53;;;20.50;;
4084;SDS011;2057;50.858;6.572;2024-03-08T01:25:41;37.60;;;21.77;;
4084;SDS011;2057;50.858;6.572;2024-03-08T01:28:06;39.20;;;24.63;;
4084;SDS011;2057;50.858;6.572;2024-03-08T01:30:32;33.20;;;20.17;;
4084;SDS011;2057;50.858;6.572;2024-03-08T01:32:59;37.78;;;21.23;;
4084;SDS011;2057;50.858;6.572;2024-03-08T01:35:24;37.40;;;22.27;;
4084;SDS011;2057;50.858;6.572;2024-03-08T01:37:52;37.40;;;22.38;;
4084;SDS011;2057;50.858;6.572;2024-03-08T01:40:17;40.07;;;22.17;;
4084;SDS011;2057;50.858;6.572;2024-03-08T01:42:43;37.63;;;21.60;;
4084;SDS011;2057;50.858;6.572;2024-03-08T01:45:09;39.22;;;22.98;;
4084;SDS011;2057;50.858;6.572;2024-03-08T01:47:35;41.23;;;22.10;;
4084;SDS011;2057;50.858;6.572;2024-03-08T01:50:01;45.37;;;23.07;;
4084;SDS011;2057;50.858;6.572;2024-03-08T01:52:28;43.03;;;23.17;;
4084;SDS011;2057;50.858;6.572;2024-03-08T01:54:56;35.78;;;22.00;;
4084;SDS011;2057;50.858;6.572;2024-03-08T01:57:27;44.28;;;22.80;;
4084;SDS011;2057;50.858;6.572;2024-03-08T01:59:53;32.17;;;20.67;;
4084;SDS011;2057;50.858;6.572;2024-03-08T02:02:20;37.65;;;23.20;;
4084;SDS011;2057;50.858;6.572;2024-03-08T02:04:47;41.50;;;22.45;;
4084;SDS011;2057;50.858;6.572;2024-03-08T02:07:12;42.60;;;23.07;;
4084;SDS011;2057;50.858;6.572;2024-03-08T02:09:40;43.30;;;21.85;;
4084;SDS011;2057;50.858;6.572;2024-03-08T02:12:08;33.57;;;21.60;;
4084;SDS011;2057;50.858;6.572;2024-03-08T02:14:36;41.85;;;21.67;;
4084;SDS011;2057;50.858;6.572;2024-03-08T02:17:01;31.47;;;18.83;;
4084;SDS011;2057;50.858;6.572;2024-03-08T02:19:27;35.70;;;21.55;;
4084;SDS011;2057;50.858;6.572;2024-03-08T02:21:55;37.10;;;23.23;;
4084;SDS011;2057;50.858;6.572;2024-03-08T02:24:21;29.65;;;19.67;;
4084;SDS011;2057;50.858;6.572;2024-03-08T02:26:53;39.63;;;22.00;;
4084;SDS011;2057;50.858;6.572;2024-03-08T02:29:19;41.43;;;22.10;;
4084;SDS011;2057;50.858;6.572;2024-03-08T02:31:45;40.35;;;22.00;;
4084;SDS011;2057;50.858;6.572;2024-03-08T02:34:10;33.03;;;20.67;;
4084;SDS011;2057;50.858;6.572;2024-03-08T02:36:36;43.90;;;22.67;;
4084;SDS011;2057;50.858;6.572;2024-03-08T02:39:03;40.70;;;21.40;;
4084;SDS011;2057;50.858;6.572;2024-03-08T02:41:30;36.17;;;21.52;;
4084;SDS011;2057;50.858;6.572;2024-03-08T02:43:55;39.40;;;22.60;;
4084;SDS011;2057;50.858;6.572;2024-03-08T02:46:21;43.67;;;21.10;;
4084;SDS011;2057;50.858;6.572;2024-03-08T02:48:46;35.53;;;21.40;;
4084;SDS011;2057;50.858;6.572;2024-03-08T02:51:12;41.03;;;21.23;;
4084;SDS011;2057;50.858;6.572;2024-03-08T02:53:38;39.35;;;20.95;;
4084;SDS011;2057;50.858;6.572;2024-03-08T02:56:06;49.90;;;23.13;;
4084;SDS011;2057;50.858;6.572;2024-03-08T02:58:37;37.10;;;23.30;;
4084;SDS011;2057;50.858;6.572;2024-03-08T03:01:03;35.00;;;23.13;;
4084;SDS011;2057;50.858;6.572;2024-03-08T03:03:28;36.47;;;22.33;;
4084;SDS011;2057;50.858;6.572;2024-03-08T03:05:53;45.13;;;22.03;;
4084;SDS011;2057;50.858;6.572;2024-03-08T03:08:22;37.45;;;24.10;;
4084;SDS011;2057;50.858;6.572;2024-03-08T03:10:49;39.65;;;24.20;;
4084;SDS011;2057;50.858;6.572;2024-03-08T03:13:15;39.90;;;23.13;;
4084;SDS011;2057;50.858;6.572;2024-03-08T03:15:40;57.03;;;24.87;;
4084;SDS011;2057;50.858;6.572;2024-03-08T03:18:08;46.80;;;24.05;;
4084;SDS011;2057;50.858;6.572;2024-03-08T03:20:33;45.23;;;23.53;;
4084;SDS011;2057;50.858;6.572;2024-03-08T03:23:05;44.60;;;23.73;;
4084;SDS011;2057;50.858;6.572;2024-03-08T03:25:33;46.90;;;25.52;;
4084;SDS011;2057;50.858;6.572;2024-03-08T03:28:00;48.95;;;26.08;;
4084;SDS011;2057;50.858;6.572;2024-03-08T03:30:25;45.27;;;24.53;;
4084;SDS011;2057;50.858;6.572;2024-03-08T03:33:00;42.97;;;23.85;;
4084;SDS011;2057;50.858;6.572;2024-03-08T03:35:29;43.65;;;23.60;;
4084;SDS011;2057;50.858;6.572;2024-03-08T03:37:54;35.33;;;21.27;;
4084;SDS011;2057;50.858;6.572;2024-03-08T03:40:35;39.65;;;23.00;;
4084;SDS011;2057;50.858;6.572;2024-03-08T03:43:10;42.22;;;23.27;;
4084;SDS011;2057;50.858;6.572;2024-03-08T03:45:35;39.37;;;25.40;;
4084;SDS011;2057;50.858;6.572;2024-03-08T03:48:05;40.63;;;22.20;;
4084;SDS011;2057;50.858;6.572;2024-03-08T03:50:33;43.33;;;23.35;;
4084;SDS011;2057;50.858;6.572;2024-03-08T03:53:01;45.45;;;23.83;;
4084;SDS011;2057;50.858;6.572;2024-03-08T03:55:27;38.42;;;22.40;;
4084;SDS011;2057;50.858;6.572;2024-03-08T03:57:53;48.10;;;24.63;;
4084;SDS011;2057;50.858;6.572;2024-03-08T04:00:23;43.45;;;23.95;;
4084;SDS011;2057;50.858;6.572;2024-03-08T04:02:51;37.60;;;22.13;;
4084;SDS011;2057;50.858;6.572;2024-03-08T04:05:17;44.97;;;25.43;;
4084;SDS011;2057;50.858;6.572;2024-03-08T04:07:42;43.90;;;22.30;;
4084;SDS011;2057;50.858;6.572;2024-03-08T04:10:08;36.77;;;22.67;;
4084;SDS011;2057;50.858;6.572;2024-03-08T04:12:37;55.53;;;23.90;;
4084;SDS011;2057;50.858;6.572;2024-03-08T04:15:03;40.90;;;24.00;;
4084;SDS011;2057;50.858;6.572;2024-03-08T04:17:29;36.75;;;22.00;;
4084;SDS011;2057;50.858;6.572;2024-03-08T04:19:55;37.83;;;22.60;;
4084;SDS011;2057;50.858;6.572;2024-03-08T04:22:20;38.93;;;23.33;;
4084;SDS011;2057;50.858;6.572;2024-03-08T04:24:46;41.40;;;21.77;;
4084;SDS011;2057;50.858;6.572;2024-03-08T04:27:11;43.00;;;22.10;;
4084;SDS011;2057;50.858;6.572;2024-03-08T04:29:39;40.40;;;23.17;;
4084;SDS011;2057;50.858;6.572;2024-03-08T04:32:07;46.37;;;23.03;;
4084;SDS011;2057;50.858;6.572;2024-03-08T04:34:33;35.67;;;22.80;;
4084;SDS011;2057;50.858;6.572;2024-03-08T04:37:02;44.95;;;23.80;;
4084;SDS011;2057;50.858;6.572;2024-03-08T04:39:29;38.78;;;23.77;;
4084;SDS011;2057;50.858;6.572;2024-03-08T04:41:56;33.83;;;20.27;;
4084;SDS011;2057;50.858;6.572;2024-03-08T04:44:24;41.90;;;22.70;;
4084;SDS011;2057;50.858;6.572;2024-03-08T04:46:49;41.33;;;23.17;;
4084;SDS011;2057;50.858;6.572;2024-03-08T04:49:15;48.97;;;23.93;;
4084;SDS011;2057;50.858;6.572;2024-03-08T04:51:40;42.20;;;23.13;;
4084;SDS011;2057;50.858;6.572;2024-03-08T04:54:08;44.93;;;23.73;;
4084;SDS011;2057;50.858;6.572;2024-03-08T04:56:35;45.28;;;23.95;;
4084;SDS011;2057;50.858;6.572;2024-03-08T04:59:03;41.40;;;23.08;;
4084;SDS011;2057;50.858;6.572;2024-03-08T05:01:35;42.85;;;24.42;;
4084;SDS011;2057;50.858;6.572;2024-03-08T05:04:05;43.30;;;22.83;;
4084;SDS011;2057;50.858;6.572;2024-03-08T05:06:31;39.10;;;24.00;;
4084;SDS011;2057;50.858;6.572;2024-03-08T05:08:56;44.43;;;22.37;;
4084;SDS011;2057;50.858;6.572;2024-03-08T05:11:24;39.80;;;22.05;;
4084;SDS011;2057;50.858;6.572;2024-03-08T05:13:49;42.50;;;23.10;;
4084;SDS011;2057;50.858;6.572;2024-03-08T05:16:14;47.63;;;24.87;;
4084;SDS011;2057;50.858;6.572;2024-03-08T05:18:40;44.70;;;22.43;;
4084;SDS011;2057;50.858;6.572;2024-03-08T05:21:07;42.67;;;22.52;;
4084;SDS011;2057;50.858;6.572;2024-03-08T05:23:34;42.92;;;23.17;;
4084;SDS011;2057;50.858;6.572;2024-03-08T05:26:00;43.10;;;22.20;;
4084;SDS011;2057;50.858;6.572;2024-03-08T05:28:26;39.70;;;22.93;;
4084;SDS011;2057;50.858;6.572;2024-03-08T05:30:51;54.00;;;23.93;;
4084;SDS011;2057;50.858;6.572;2024-03-08T05:33:17;46.17;;;23.90;;
4084;SDS011;2057;50.858;6.572;2024-03-08T05:35:42;36.90;;;21.70;;
4084;SDS011;2057;50.858;6.572;2024-03-08T05:38:08;43.90;;;25.30;;
4084;SDS011;2057;50.858;6.572;2024-03-08T05:40:37;55.65;;;25.40;;
4084;SDS011;2057;50.858;6.572;2024-03-08T05:43:03;44.60;;;22.13;;
4084;SDS011;2057;50.858;6.572;2024-03-08T05:45:28;37.13;;;23.23;;
4084;SDS011;2057;50.858;6.572;2024-03-08T05:47:56;45.50;;;24.90;;
4084;SDS011;2057;50.858;6.572;2024-03-08T05:50:21;43.30;;;23.67;;
4084;SDS011;2057;50.858;6.572;2024-03-08T05:52:47;44.30;;;23.87;;
4084;SDS011;2057;50.858;6.572;2024-03-08T05:55:12;46.47;;;24.60;;
4084;SDS011;2057;50.858;6.572;2024-03-08T05:57:39;42.80;;;25.42;;
4084;SDS011;2057;50.858;6.572;2024-03-08T06:00:05;40.63;;;23.48;;
4084;SDS011;2057;50.858;6.572;2024-03-08T06:02:31;46.70;;;24.92;;
4084;SDS011;2057;50.858;6.572;2024-03-08T06:04:57;43.50;;;25.80;;
4084;SDS011;2057;50.858;6.572;2024-03-08T06:07:23;49.17;;;27.00;;
4084;SDS011;2057;50.858;6.572;2024-03-08T06:09:48;48.47;;;25.07;;
4084;SDS011;2057;50.858;6.572;2024-03-08T06:12:14;43.70;;;22.80;;
4084;SDS011;2057;50.858;6.572;2024-03-08T06:14:43;43.35;;;24.80;;
4084;SDS011;2057;50.858;6.572;2024-03-08T06:17:09;44.25;;;23.02;;
4084;SDS011;2057;50.858;6.572;2024-03-08T06:19:36;38.22;;;23.65;;
4084;SDS011;2057;50.858;6.572;2024-03-08T06:22:01;46.23;;;24.90;;
4084;SDS011;2057;50.858;6.572;2024-03-08T06:24:30;52.28;;;26.25;;
4084;SDS011;2057;50.858;6.572;2024-03-08T06:27:01;45.60;;;25.27;;
4084;SDS011;2057;50.858;6.572;2024-03-08T06:29:26;46.10;;;24.20;;
4084;SDS011;2057;50.858;6.572;2024-03-08T06:31:54;51.10;;;24.83;;
4084;SDS011;2057;50.858;6.572;2024-03-08T06:34:20;44.38;;;24.60;;
4084;SDS011;2057;50.858;6.572;2024-03-08T06:36:48;43.70;;;25.70;;
4084;SDS011;2057;50.858;6.572;2024-03-08T06:39:13;47.40;;;24.77;;
4084;SDS011;2057;50.858;6.572;2024-03-08T06:41:41;57.90;;;26.07;;
4084;SDS011;2057;50.858;6.572;2024-03-08T06:44:09;42.85;;;25.02;;
4084;SDS011;2057;50.858;6.572;2024-03-08T06:46:34;41.63;;;23.43;;
4084;SDS011;2057;50.858;6.572;2024-03-08T06:48:59;64.33;;;25.67;;
4084;SDS011;2057;50.858;6.572;2024-03-08T06:51:25;46.50;;;23.97;;
4084;SDS011;2057;50.858;6.572;2024-03-08T06:53:50;49.17;;;24.33;;
4084;SDS011;2057;50.858;6.572;2024-03-08T06:56:19;48.92;;;24.67;;
4084;SDS011;2057;50.858;6.572;2024-03-08T06:58:47;48.90;;;26.05;;
4084;SDS011;2057;50.858;6.572;2024-03-08T07:01:13;40.10;;;23.63;;
4084;SDS011;2057;50.858;6.572;2024-03-08T07:03:41;51.20;;;26.67;;
4084;SDS011;2057;50.858;6.572;2024-03-08T07:06:09;50.65;;;25.65;;
4084;SDS011;2057;50.858;6.572;2024-03-08T07:08:35;42.30;;;23.00;;
4084;SDS011;2057;50.858;6.572;2024-03-08T07:11:03;50.43;;;26.63;;
4084;SDS011;2057;50.858;6.572;2024-03-08T07:13:31;50.33;;;24.85;;
4084;SDS011;2057;50.858;6.572;2024-03-08T07:16:03;51.40;;;26.33;;
4084;SDS011;2057;50.858;6.572;2024-03-08T07:18:32;44.10;;;25.77;;
4084;SDS011;2057;50.858;6.572;2024-03-08T07:20:59;44.80;;;25.15;;
4084;SDS011;2057;50.858;6.572;2024-03-08T07:23:28;48.25;;;23.92;;
4084;SDS011;2057;50.858;6.572;2024-03-08T07:26:20;45.03;;;23.85;;
4084;SDS011;2057;50.858;6.572;2024-03-08T07:28:46;57.63;;;27.17;;
4084;SDS011;2057;50.858;6.572;2024-03-08T07:31:11;50.27;;;24.60;;
4084;SDS011;2057;50.858;6.572;2024-03-08T07:33:52;52.63;;;27.45;;
4084;SDS011;2057;50.858;6.572;2024-03-08T07:36:18;44.65;;;24.60;;
4084;SDS011;2057;50.858;6.572;2024-03-08T07:38:44;45.37;;;24.60;;
4084;SDS011;2057;50.858;6.572;2024-03-08T07:41:11;55.08;;;27.63;;
4084;SDS011;2057;50.858;6.572;2024-03-08T07:43:42;57.63;;;24.83;;
4084;SDS011;2057;50.858;6.572;2024-03-08T07:46:07;47.73;;;27.17;;
4084;SDS011;2057;50.858;6.572;2024-03-08T07:48:35;43.92;;;25.33;;
4084;SDS011;2057;50.858;6.572;2024-03-08T07:51:01;53.05;;;28.20;;
4084;SDS011;2057;50.858;6.572;2024-03-08T07:53:29;46.05;;;24.00;;
4084;SDS011;2057;50.858;6.572;2024-03-08T07:55:57;47.70;;;25.20;;
4084;SDS011;2057;50.858;6.572;2024-03-08T07:58:25;38.50;;;22.63;;
4084;SDS011;2057;50.858;6.572;2024-03-08T08:00:50;48.77;;;26.17;;
4084;SDS011;2057;50.858;6.572;2024-03-08T08:03:15;45.07;;;24.63;;
4084;SDS011;2057;50.858;6.572;2024-03-08T08:05:44;47.03;;;23.98;;
4084;SDS011;2057;50.858;6.572;2024-03-08T08:08:14;54.28;;;26.40;;
4084;SDS011;2057;50.858;6.572;2024-03-08T08:10:42;46.27;;;23.80;;
4084;SDS011;2057;50.858;6.572;2024-03-08T08:13:07;42.10;;;25.75;;
4084;SDS011;2057;50.858;6.572;2024-03-08T08:15:35;45.30;;;25.00;;
4084;SDS011;2057;50.858;6.572;2024-03-08T08:18:00;44.88;;;24.63;;
4084;SDS011;2057;50.858;6.572;2024-03-08T08:20:27;53.53;;;26.65;;
4084;SDS011;2057;50.858;6.572;2024-03-08T08:22:53;44.83;;;24.02;;
4084;SDS011;2057;50.858;6.572;2024-03-08T08:25:20;52.38;;;25.10;;
4084;SDS011;2057;50.858;6.572;2024-03-08T08:27:45;45.57;;;24.93;;
4084;SDS011;2057;50.858;6.572;2024-03-08T08:30:11;43.17;;;25.52;;
4084;SDS011;2057;50.858;6.572;2024-03-08T08:32:37;44.40;;;24.00;;
4084;SDS011;2057;50.858;6.572;2024-03-08T08:35:09;43.28;;;24.80;;
4084;SDS011;2057;50.858;6.572;2024-03-08T08:37:38;41.60;;;25.38;;
4084;SDS011;2057;50.858;6.572;2024-03-08T08:40:03;46.20;;;25.52;;
4084;SDS011;2057;50.858;6.572;2024-03-08T08:42:34;47.28;;;25.15;;
4084;SDS011;2057;50.858;6.572;2024-03-08T08:45:04;48.92;;;25.75;;
4084;SDS011;2057;50.858;6.572;2024-03-08T08:47:33;40.30;;;23.75;;
4084;SDS011;2057;50.858;6.572;2024-03-08T08:49:59;49.08;;;24.55;;
4084;SDS011;2057;50.858;6.572;2024-03-08T08:52:28;41.22;;;22.02;;
4084;SDS011;2057;50.858;6.572;2024-03-08T08:54:54;46.38;;;23.50;;
4084;SDS011;2057;50.858;6.572;2024-03-08T08:57:19;40.27;;;22.77;;
4084;SDS011;2057;50.858;6.572;2024-03-08T08:59:45;42.78;;;24.10;;
4084;SDS011;2057;50.858;6.572;2024-03-08T09:02:11;44.10;;;23.33;;
4084;SDS011;2057;50.858;6.572;2024-03-08T09:04:36;46.63;;;24.90;;
4084;SDS011;2057;50.858;6.572;2024-03-08T09:07:03;40.83;;;24.15;;
4084;SDS011;2057;50.858;6.572;2024-03-08T09:09:38;47.40;;;26.45;;
4084;SDS011;2057;50.858;6.572;2024-03-08T09:12:06;76.63;;;25.63;;
4084;SDS011;2057;50.858;6.572;2024-03-08T09:14:31;45.22;;;24.27;;
4084;SDS011;2057;50.858;6.572;2024-03-08T09:16:57;47.17;;;24.70;;
4084;SDS011;2057;50.858;6.572;2024-03-08T09:19:24;44.20;;;23.77;;
4084;SDS011;2057;50.858;6.572;2024-03-08T09:21:51;44.80;;;24.17;;
4084;SDS011;2057;50.858;6.572;2024-03-08T09:24:19;46.00;;;24.17;;
4084;SDS011;2057;50.858;6.572;2024-03-08T09:26:44;41.33;;;26.10;;
4084;SDS011;2057;50.858;6.572;2024-03-08T09:29:09;51.70;;;24.50;;
4084;SDS011;2057;50.858;6.572;2024-03-08T09:31:35;43.50;;;23.83;;
4084;SDS011;2057;50.858;6.572;2024-03-08T09:34:03;46.15;;;25.25;;
4084;SDS011;2057;50.858;6.572;2024-03-08T09:36:33;40.28;;;24.05;;
4084;SDS011;2057;50.858;6.572;2024-03-08T09:39:01;42.03;;;24.90;;
4084;SDS011;2057;50.858;6.572;2024-03-08T09:41:26;35.38;;;22.08;;
4084;SDS011;2057;50.858;6.572;2024-03-08T09:43:52;43.70;;;22.47;;
4084;SDS011;2057;50.858;6.572;2024-03-08T09:46:18;39.20;;;21.00;;
4084;SDS011;2057;50.858;6.572;2024-03-08T09:48:47;37.85;;;22.15;;
4084;SDS011;2057;50.858;6.572;2024-03-08T09:51:12;37.07;;;22.20;;
4084;SDS011;2057;50.858;6.572;2024-03-08T09:53:42;40.33;;;22.25;;
4084;SDS011;2057;50.858;6.572;2024-03-08T09:56:08;38.00;;;21.50;;
4084;SDS011;2057;50.858;6.572;2024-03-08T09:58:37;33.38;;;20.88;;
4084;SDS011;2057;50.858;6.572;2024-03-08T10:01:41;37.85;;;22.20;;
4084;SDS011;2057;50.858;6.572;2024-03-08T10:04:06;32.38;;;20.42;;
4084;SDS011;2057;50.858;6.572;2024-03-08T10:06:32;41.13;;;21.80;;
4084;SDS011;2057;50.858;6.572;2024-03-08T10:11:39;44.08;;;21.00;;
4084;SDS011;2057;50.858;6.572;2024-03-08T10:14:10;39.80;;;20.77;;
4084;SDS011;2057;50.858;6.572;2024-03-08T10:16:37;36.15;;;21.08;;
4084;SDS011;2057;50.858;6.572;2024-03-08T10:19:04;27.45;;;17.48;;
4084;SDS011;2057;50.858;6.572;2024-03-08T10:21:30;33.87;;;19.80;;
4084;SDS011;2057;50.858;6.572;2024-03-08T10:24:04;34.90;;;20.92;;
4084;SDS011;2057;50.858;6.572;2024-03-08T10:26:29;29.27;;;19.33;;
4084;SDS011;2057;50.858;6.572;2024-03-08T10:28:55;29.30;;;18.30;;
4084;SDS011;2057;50.858;6.572;2024-03-08T10:31:22;32.45;;;18.60;;
4084;SDS011;2057;50.858;6.572;2024-03-08T10:33:50;29.83;;;18.63;;
4084;SDS011;2057;50.858;6.572;2024-03-08T10:36:19;33.93;;;18.17;;
4084;SDS011;2057;50.858;6.572;2024-03-08T10:38:46;30.20;;;18.30;;
4084;SDS011;2057;50.858;6.572;2024-03-08T10:41:15;37.83;;;19.90;;
4084;SDS011;2057;50.858;6.572;2024-03-08T10:49:16;37.23;;;19.07;;
4084;SDS011;2057;50.858;6.572;2024-03-08T10:51:43;29.73;;;17.17;;
4084;SDS011;2057;50.858;6.572;2024-03-08T10:54:11;30.00;;;19.70;;
4084;SDS011;2057;50.858;6.572;2024-03-08T10:56:37;31.60;;;18.40;;
4084;SDS011;2057;50.858;6.572;2024-03-08T10:59:07;28.67;;;16.07;;
4084;SDS011;2057;50.858;6.572;2024-03-08T11:01:33;28.97;;;18.80;;
4084;SDS011;2057;50.858;6.572;2024-03-08T11:03:59;30.73;;;19.00;;
4084;SDS011;2057;50.858;6.572;2024-03-08T11:09:08;28.23;;;18.57;;
4084;SDS011;2057;50.858;6.572;2024-03-08T11:11:51;25.20;;;16.93;;
4084;SDS011;2057;50.858;6.572;2024-03-08T11:17:13;28.43;;;16.90;;
4084;SDS011;2057;50.858;6.572;2024-03-08T11:19:45;26.10;;;17.30;;
4084;SDS011;2057;50.858;6.572;2024-03-08T11:22:20;29.23;;;16.90;;
4084;SDS011;2057;50.858;6.572;2024-03-08T11:24:49;33.43;;;17.37;;
4084;SDS011;2057;50.858;6.572;2024-03-08T11:27:15;23.67;;;15.03;;
4084;SDS011;2057;50.858;6.572;2024-03-08T11:29:40;27.70;;;15.63;;
4084;SDS011;2057;50.858;6.572;2024-03-08T12:26:25;24.17;;;14.17;;
4084;SDS011;2057;50.858;6.572;2024-03-08T12:28:53;23.00;;;14.30;;
4084;SDS011;2057;50.858;6.572;2024-03-08T12:31:21;20.13;;;14.10;;
4084;SDS011;2057;50.858;6.572;2024-03-08T12:33:54;20.40;;;13.63;;
4084;SDS011;2057;50.858;6.572;2024-03-08T12:36:24;22.97;;;14.47;;
4084;SDS011;2057;50.858;6.572;2024-03-08T12:38:50;24.87;;;15.70;;
4084;SDS011;2057;50.858;6.572;2024-03-08T12:41:19;23.23;;;15.33;;
4084;SDS011;2057;50.858;6.572;2024-03-08T12:43:45;24.90;;;15.63;;
4084;SDS011;2057;50.858;6.572;2024-03-08T12:46:14;24.07;;;14.60;;
4084;SDS011;2057;50.858;6.572;2024-03-08T12:48:45;25.07;;;14.57;;
4084;SDS011;2057;50.858;6.572;2024-03-08T12:51:17;21.70;;;13.33;;
4084;SDS011;2057;50.858;6.572;2024-03-08T12:53:46;22.07;;;14.60;;
4084;SDS011;2057;50.858;6.572;2024-03-08T12:56:16;24.80;;;15.10;;
4084;SDS011;2057;50.858;6.572;2024-03-08T12:58:53;22.40;;;15.87;;
4084;SDS011;2057;50.858;6.572;2024-03-08T13:01:18;29.43;;;15.87;;
4084;SDS011;2057;50.858;6.572;2024-03-08T13:03:44;20.37;;;13.60;;
4084;SDS011;2057;50.858;6.572;2024-03-08T13:06:13;23.50;;;13.97;;
4084;SDS011;2057;50.858;6.572;2024-03-08T13:13:50;19.50;;;13.03;;
4084;SDS011;2057;50.858;6.572;2024-03-08T13:16:16;25.27;;;15.90;;
4084;SDS011;2057;50.858;6.572;2024-03-08T13:18:45;19.10;;;13.50;;
4084;SDS011;2057;50.858;6.572;2024-03-08T13:21:14;19.10;;;13.60;;
4084;SDS011;2057;50.858;6.572;2024-03-08T13:23:43;19.50;;;13.90;;
4084;SDS011;2057;50.858;6.572;2024-03-08T13:26:17;21.90;;;16.30;;
4084;SDS011;2057;50.858;6.572;2024-03-08T13:28:46;25.53;;;15.97;;
4084;SDS011;2057;50.858;6.572;2024-03-08T13:31:13;29.43;;;15.93;;
4084;SDS011;2057;50.858;6.572;2024-03-08T13:33:41;22.17;;;14.37;;
4084;SDS011;2057;50.858;6.572;2024-03-08T13:36:10;18.20;;;13.20;;
4084;SDS011;2057;50.858;6.572;2024-03-08T13:38:44;26.27;;;14.37;;
4084;SDS011;2057;50.858;6.572;2024-03-08T13:41:11;28.53;;;13.93;;
4084;SDS011;2057;50.858;6.572;2024-03-08T13:43:39;24.40;;;13.57;;
4084;SDS011;2057;50.858;6.572;2024-03-08T13:46:16;26.87;;;15.83;;
4084;SDS011;2057;50.858;6.572;2024-03-08T13:48:42;26.53;;;15.00;;
4084;SDS011;2057;50.858;6.572;2024-03-08T13:51:10;21.10;;;14.33;;
4084;SDS011;2057;50.858;6.572;2024-03-08T13:53:37;21.60;;;14.50;;
4084;SDS011;2057;50.858;6.572;2024-03-08T13:56:03;21.67;;;13.07;;
4084;SDS011;2057;50.858;6.572;2024-03-08T13:58:28;19.20;;;12.90;;
4084;SDS011;2057;50.858;6.572;2024-03-08T14:00:54;17.67;;;13.40;;
4084;SDS011;2057;50.858;6.572;2024-03-08T14:03:20;15.70;;;10.73;;
4084;SDS011;2057;50.858;6.572;2024-03-08T14:05:49;17.73;;;12.30;;
4084;SDS011;2057;50.858;6.572;2024-03-08T14:08:14;20.23;;;11.40;;
4084;SDS011;2057;50.858;6.572;2024-03-08T14:10:43;21.07;;;13.33;;
4084;SDS011;2057;50.858;6.572;2024-03-08T14:13:14;25.23;;;14.53;;
4084;SDS011;2057;50.858;6.572;2024-03-08T14:15:41;20.97;;;13.47;;
4084;SDS011;2057;50.858;6.572;2024-03-08T14:18:09;22.87;;;13.07;;
4084;SDS011;2057;50.858;6.572;2024-03-08T14:20:37;18.40;;;12.90;;
4084;SDS011;2057;50.858;6.572;2024-03-08T14:23:03;25.33;;;14.80;;
4084;SDS011;2057;50.858;6.572;2024-03-08T14:25:37;24.33;;;14.00;;
4084;SDS011;2057;50.858;6.572;2024-03-08T14:28:05;26.27;;;13.00;;
4084;SDS011;2057;50.858;6.572;2024-03-08T14:30:32;22.80;;;13.77;;
4084;SDS011;2057;50.858;6.572;2024-03-08T14:33:08;23.00;;;14.07;;
4084;SDS011;2057;50.858;6.572;2024-03-08T14:35:34;20.63;;;13.33;;
4084;SDS011;2057;50.858;6.572;2024-03-08T14:38:01;29.93;;;14.00;;
4084;SDS011;2057;50.858;6.572;2024-03-08T14:40:27;20.77;;;13.53;;
4084;SDS011;2057;50.858;6.572;2024-03-08T14:42:52;19.60;;;12.90;;
4084;SDS011;2057;50.858;6.572;2024-03-08T14:45:18;18.97;;;12.40;;
4084;SDS011;2057;50.858;6.572;2024-03-08T14:47:45;24.03;;;14.63;;
4084;SDS011;2057;50.858;6.572;2024-03-08T14:50:14;18.90;;;11.73;;
4084;SDS011;2057;50.858;6.572;2024-03-08T14:52:49;17.37;;;11.90;;
4084;SDS011;2057;50.858;6.572;2024-03-08T14:55:16;19.50;;;13.13;;
4084;SDS011;2057;50.858;6.572;2024-03-08T14:57:47;19.43;;;12.80;;
4084;SDS011;2057;50.858;6.572;2024-03-08T15:00:15;17.13;;;11.73;;
4084;SDS011;2057;50.858;6.572;2024-03-08T15:02:45;20.63;;;13.43;;
4084;SDS011;2057;50.858;6.572;2024-03-08T15:05:13;18.70;;;13.07;;
4084;SDS011;2057;50.858;6.572;2024-03-08T15:07:39;20.10;;;13.90;;
4084;SDS011;2057;50.858;6.572;2024-03-08T15:10:10;18.00;;;12.97;;
4084;SDS011;2057;50.858;6.572;2024-03-08T15:12:48;24.20;;;13.93;;
4084;SDS011;2057;50.858;6.572;2024-03-08T15:15:17;19.90;;;12.73;;
4084;SDS011;2057;50.858;6.572;2024-03-08T15:17:43;18.40;;;13.40;;
4084;SDS011;2057;50.858;6.572;2024-03-08T15:20:12;22.50;;;13.80;;
4084;SDS011;2057;50.858;6.572;2024-03-08T15:22:52;24.97;;;13.10;;
4084;SDS011;2057;50.858;6.572;2024-03-08T15:25:20;31.40;;;12.70;;
4084;SDS011;2057;50.858;6.572;2024-03-08T15:27:51;20.43;;;13.57;;
4084;SDS011;2057;50.858;6.572;2024-03-08T15:30:20;20.30;;;13.00;;
4084;SDS011;2057;50.858;6.572;2024-03-08T15:32:51;22.80;;;13.20;;
4084;SDS011;2057;50.858;6.572;2024-03-08T15:35:21;20.17;;;13.40;;
4084;SDS011;2057;50.858;6.572;2024-03-08T15:37:46;22.60;;;14.57;;
4084;SDS011;2057;50.858;6.572;2024-03-08T15:40:12;19.83;;;13.30;;
4084;SDS011;2057;50.858;6.572;2024-03-08T15:42:56;18.90;;;12.93;;
4084;SDS011;2057;50.858;6.572;2024-03-08T15:45:22;20.40;;;13.27;;
4084;SDS011;2057;50.858;6.572;2024-03-08T15:47:51;20.77;;;12.57;;
4084;SDS011;2057;50.858;6.572;2024-03-08T15:50:16;21.43;;;13.43;;
4084;SDS011;2057;50.858;6.572;2024-03-08T15:52:43;18.90;;;13.13;;
4084;SDS011;2057;50.858;6.572;2024-03-08T15:55:17;22.70;;;13.70;;
4084;SDS011;2057;50.858;6.572;2024-03-08T15:57:52;19.67;;;13.17;;
4084;SDS011;2057;50.858;6.572;2024-03-08T16:00:19;21.17;;;14.07;;
4084;SDS011;2057;50.858;6.572;2024-03-08T16:03:04;20.30;;;14.13;;